createdAt,value
2018-10-21T00:01:17.660Z,8.47
2018-10-21T00:03:46.489Z,8.27
2018-10-21T00:06:15.319Z,8.70
2018-10-21T00:08:44.334Z,9.90
2018-10-21T00:11:13.229Z,9.37
2018-10-21T00:13:42.843Z,8.63
2018-10-21T00:16:11.698Z,9.33
2018-10-21T00:18:40.525Z,9.03
2018-10-21T00:21:09.463Z,8.30
2018-10-21T00:23:38.229Z,9.30
2018-10-21T00:26:07.062Z,9.03
2018-10-21T00:28:35.886Z,8.30
2018-10-21T00:31:04.830Z,9.13
2018-10-21T00:33:33.658Z,9.40
2018-10-21T00:36:02.481Z,8.87
2018-10-21T00:38:31.305Z,8.73
2018-10-21T00:41:00.210Z,9.57
2018-10-21T00:43:29.009Z,9.60
2018-10-21T00:45:57.873Z,10.53
2018-10-21T00:48:26.707Z,9.97
2018-10-21T00:50:55.531Z,8.50
2018-10-21T00:53:24.360Z,8.60
2018-10-21T00:55:53.239Z,8.30
2018-10-21T00:58:22.088Z,7.90
2018-10-21T01:00:50.940Z,7.40
2018-10-21T01:03:20.404Z,8.78
2018-10-21T01:05:49.228Z,8.80
2018-10-21T01:08:18.045Z,9.70
2018-10-21T01:10:47.040Z,8.97
2018-10-21T01:13:15.864Z,8.50
2018-10-21T01:15:44.694Z,8.60
2018-10-21T01:18:13.520Z,9.00
2018-10-21T01:20:42.728Z,8.90
2018-10-21T01:23:11.668Z,8.80
2018-10-21T01:25:40.496Z,9.07
2018-10-21T01:28:09.308Z,10.37
2018-10-21T01:30:38.096Z,10.47
2018-10-21T01:33:07.019Z,9.53
2018-10-21T01:35:35.829Z,10.63
2018-10-21T01:38:05.056Z,16.07
2018-10-21T01:40:35.856Z,14.40
2018-10-21T01:43:05.296Z,13.70
2018-10-21T01:45:34.194Z,13.20
2018-10-21T01:48:04.367Z,15.03
2018-10-21T01:50:33.284Z,13.97
2018-10-21T01:53:03.240Z,13.80
2018-10-21T01:55:32.134Z,15.20
2018-10-21T01:58:01.333Z,14.53
2018-10-21T02:00:30.949Z,14.87
2018-10-21T02:03:00.073Z,13.70
2018-10-21T02:05:29.238Z,13.77
2018-10-21T02:07:58.064Z,13.20
2018-10-21T02:10:26.944Z,14.23
2018-10-21T02:12:56.354Z,14.80
2018-10-21T02:15:25.331Z,15.20
2018-10-21T02:17:54.172Z,15.77
2018-10-21T02:20:23.620Z,15.27
2018-10-21T02:22:52.678Z,14.87
2018-10-21T02:25:21.632Z,15.53
2018-10-21T02:27:51.172Z,15.90
2018-10-21T02:30:21.993Z,15.97
2018-10-21T02:32:51.528Z,15.70
2018-10-21T02:35:20.852Z,15.93
2018-10-21T02:37:50.157Z,15.70
2018-10-21T02:41:27.964Z,15.60
2018-10-21T02:43:56.854Z,14.57
2018-10-21T02:46:25.783Z,14.53
2018-10-21T02:48:55.669Z,14.63
2018-10-21T02:51:24.574Z,13.17
2018-10-21T02:53:53.509Z,13.63
2018-10-21T02:56:22.848Z,14.70
2018-10-21T02:58:51.678Z,14.53
2018-10-21T03:01:20.520Z,15.17
2018-10-21T03:03:49.370Z,15.03
2018-10-21T03:06:18.245Z,15.67
2018-10-21T03:08:47.061Z,13.30
2018-10-21T03:11:15.926Z,15.10
2018-10-21T03:13:44.745Z,14.73
2018-10-21T03:16:13.608Z,14.37
2018-10-21T03:18:42.424Z,13.57
2018-10-21T03:21:11.351Z,14.83
2018-10-21T03:23:40.152Z,12.73
2018-10-21T03:26:08.969Z,13.30
2018-10-21T03:28:37.841Z,12.67
2018-10-21T03:31:06.665Z,14.13
2018-10-21T03:33:35.543Z,14.50
2018-10-21T03:36:04.496Z,14.83
2018-10-21T03:38:33.340Z,15.03
2018-10-21T03:41:02.159Z,13.37
2018-10-21T03:43:31.008Z,14.65
2018-10-21T03:46:00.494Z,13.67
2018-10-21T03:48:29.248Z,13.40
2018-10-21T03:50:58.129Z,14.53
2018-10-21T03:53:26.945Z,13.33
2018-10-21T03:55:55.795Z,13.53
2018-10-21T03:58:24.688Z,13.47
2018-10-21T04:00:53.491Z,12.17
2018-10-21T04:03:22.372Z,13.07
2018-10-21T04:05:51.204Z,13.07
2018-10-21T04:08:19.995Z,13.00
2018-10-21T04:10:48.852Z,12.80
2018-10-21T04:13:17.702Z,14.07
2018-10-21T04:15:46.533Z,12.07
2018-10-21T04:18:15.363Z,12.13
2018-10-21T04:20:44.480Z,12.37
2018-10-21T04:23:13.288Z,13.47
2018-10-21T04:25:42.101Z,12.67
2018-10-21T04:28:11.154Z,12.27
2018-10-21T04:30:41.870Z,11.93
2018-10-21T04:33:12.809Z,12.67
2018-10-21T04:35:41.737Z,13.67
2018-10-21T04:38:25.898Z,13.00
2018-10-21T04:40:54.731Z,12.83
2018-10-21T04:43:23.598Z,12.63
2018-10-21T04:45:52.481Z,12.40
2018-10-21T04:48:21.518Z,13.87
2018-10-21T04:50:50.346Z,12.40
2018-10-21T04:53:19.170Z,12.67
2018-10-21T04:55:47.987Z,12.77
2018-10-21T04:58:17.355Z,11.57
2018-10-21T05:00:46.248Z,11.37
2018-10-21T05:03:15.068Z,12.60
2018-10-21T05:05:43.879Z,12.00
2018-10-21T05:08:12.713Z,13.10
2018-10-21T05:10:41.576Z,12.33
2018-10-21T05:13:10.764Z,14.03
2018-10-21T05:15:40.273Z,12.23
2018-10-21T05:18:09.068Z,13.33
2018-10-21T05:20:37.898Z,15.00
2018-10-21T05:23:06.788Z,13.73
2018-10-21T05:25:35.608Z,13.00
2018-10-21T05:28:04.522Z,12.93
2018-10-21T05:30:33.290Z,12.70
2018-10-21T05:33:02.139Z,13.27
2018-10-21T05:35:30.973Z,12.50
2018-10-21T05:37:59.884Z,14.43
2018-10-21T05:40:28.702Z,15.53
2018-10-21T05:42:57.472Z,15.20
2018-10-21T05:45:26.366Z,15.90
2018-10-21T05:47:55.177Z,15.60
2018-10-21T05:50:24.004Z,15.90
2018-10-21T05:52:52.831Z,15.03
2018-10-21T05:55:21.648Z,15.40
2018-10-21T05:57:50.577Z,16.00
2018-10-21T06:00:20.293Z,13.40
2018-10-21T06:02:49.177Z,13.00
2018-10-21T06:05:23.464Z,14.20
2018-10-21T06:07:52.329Z,13.80
2018-10-21T06:10:21.196Z,14.73
2018-10-21T06:12:50.032Z,14.13
2018-10-21T06:15:18.814Z,15.00
2018-10-21T06:17:47.660Z,13.53
2018-10-21T06:20:21.835Z,13.90
2018-10-21T06:22:50.804Z,15.40
2018-10-21T06:25:22.664Z,14.60
2018-10-21T06:27:51.515Z,13.83
2018-10-21T06:30:20.384Z,13.87
2018-10-21T06:32:49.246Z,12.67
2018-10-21T06:35:18.138Z,12.93
2018-10-21T06:37:46.961Z,12.80
2018-10-21T06:40:15.800Z,13.27
2018-10-21T06:42:44.616Z,13.17
2018-10-21T06:45:13.519Z,13.80
2018-10-21T06:47:42.474Z,13.53
2018-10-21T06:50:14.349Z,15.03
2018-10-21T06:52:43.212Z,16.20
2018-10-21T06:55:12.299Z,16.57
2018-10-21T06:57:41.264Z,16.33
2018-10-21T07:00:10.355Z,18.27
2018-10-21T07:02:39.284Z,17.37
2018-10-21T07:05:13.472Z,16.40
2018-10-21T07:07:42.355Z,17.93
2018-10-21T07:10:11.440Z,17.67
2018-10-21T07:12:40.366Z,19.67
2018-10-21T07:15:09.315Z,20.23
2018-10-21T07:17:38.152Z,18.63
2018-10-21T07:20:07.008Z,17.50
2018-10-21T07:22:35.904Z,16.03
2018-10-21T07:25:05.148Z,15.70
2018-10-21T07:27:34.089Z,14.50
2018-10-21T07:30:03.611Z,12.37
2018-10-21T07:32:32.480Z,13.10
2018-10-21T07:35:01.446Z,12.37
2018-10-21T07:37:30.657Z,12.97
2018-10-21T07:39:59.526Z,12.60
2018-10-21T07:42:28.400Z,13.80
2018-10-21T07:44:57.296Z,13.80
2018-10-21T07:47:26.191Z,13.53
2018-10-21T07:49:55.111Z,12.80
2018-10-21T07:52:24.001Z,16.30
2018-10-21T07:54:53.948Z,15.87
2018-10-21T07:57:22.979Z,15.90
2018-10-21T07:59:51.840Z,14.13
2018-10-21T08:02:21.478Z,12.50
2018-10-21T08:04:50.304Z,11.43
2018-10-21T08:07:24.652Z,10.77
2018-10-21T08:09:53.527Z,12.00
2018-10-21T08:12:22.317Z,11.67
2018-10-21T08:14:51.248Z,11.80
2018-10-21T08:17:20.937Z,13.67
2018-10-21T08:19:50.000Z,12.50
2018-10-21T08:22:19.227Z,12.97
2018-10-21T08:24:48.299Z,12.93
2018-10-21T08:27:17.151Z,12.83
2018-10-21T08:29:46.052Z,13.53
2018-10-21T08:32:14.904Z,14.77
2018-10-21T08:34:43.744Z,13.43
2018-10-21T08:37:12.550Z,13.93
2018-10-21T08:39:41.372Z,13.80
2018-10-21T08:42:10.335Z,14.20
2018-10-21T08:44:39.126Z,15.17
2018-10-21T08:47:07.952Z,14.77
2018-10-21T08:49:36.836Z,15.18
2018-10-21T08:52:05.747Z,15.53
2018-10-21T08:54:34.925Z,14.97
2018-10-21T08:57:03.995Z,14.10
2018-10-21T08:59:32.822Z,13.33
2018-10-21T09:02:01.783Z,14.00
2018-10-21T09:04:30.541Z,15.50
2018-10-21T09:06:59.734Z,13.57
2018-10-21T09:09:28.963Z,14.20
2018-10-21T09:11:58.164Z,15.00
2018-10-21T09:14:27.082Z,15.83
2018-10-21T09:16:56.298Z,10.50
2018-10-21T09:19:25.214Z,10.93
2018-10-21T09:21:54.079Z,14.80
2018-10-21T09:24:23.069Z,14.47
2018-10-21T09:26:51.932Z,11.80
2018-10-21T09:29:20.916Z,7.77
2018-10-21T09:31:49.788Z,8.03
2018-10-21T09:34:18.672Z,8.70
2018-10-21T09:36:47.496Z,8.57
2018-10-21T09:39:16.337Z,8.97
2018-10-21T09:41:45.768Z,8.60
2018-10-21T09:44:14.709Z,9.17
2018-10-21T09:46:43.593Z,10.27
2018-10-21T09:49:13.192Z,9.27
2018-10-21T09:51:42.084Z,9.20
2018-10-21T09:54:10.953Z,9.17
2018-10-21T09:56:40.174Z,8.30
2018-10-21T09:59:09.392Z,9.77
2018-10-21T10:01:43.816Z,9.17
2018-10-21T10:04:12.844Z,9.50
2018-10-21T10:06:41.634Z,9.77
2018-10-21T10:09:12.678Z,8.73
2018-10-21T10:11:42.761Z,9.40
2018-10-21T10:14:11.744Z,8.93
2018-10-21T10:16:40.580Z,7.33
2018-10-21T10:19:09.431Z,7.57
2018-10-21T10:21:38.393Z,7.60
2018-10-21T10:24:07.220Z,8.70
2018-10-21T10:26:36.074Z,7.00
2018-10-21T10:29:04.976Z,7.57
2018-10-21T10:31:34.780Z,7.10
2018-10-21T10:34:03.697Z,6.97
2018-10-21T10:36:33.220Z,6.70
2018-10-21T10:39:02.097Z,7.47
2018-10-21T10:41:31.236Z,7.27
2018-10-21T10:44:00.066Z,7.40
2018-10-21T10:46:28.908Z,7.50
2018-10-21T10:48:57.820Z,8.03
2018-10-21T10:51:26.661Z,7.45
2018-10-21T10:53:55.532Z,8.23
2018-10-21T10:56:24.388Z,7.93
2018-10-21T10:58:53.248Z,6.97
2018-10-21T11:01:22.134Z,7.83
2018-10-21T11:03:51.013Z,8.63
2018-10-21T11:06:20.252Z,9.60
2018-10-21T11:08:49.185Z,8.50
2018-10-21T11:11:18.076Z,9.30
2018-10-21T11:13:46.895Z,8.93
2018-10-21T11:16:15.769Z,8.60
2018-10-21T11:18:44.558Z,8.67
2018-10-21T11:21:13.638Z,8.30
2018-10-21T11:23:42.885Z,9.67
2018-10-21T11:26:11.932Z,9.47
2018-10-21T11:28:41.250Z,9.67
2018-10-21T11:31:10.201Z,9.40
2018-10-21T11:33:39.000Z,9.67
2018-10-21T11:36:07.820Z,9.37
2018-10-21T11:38:36.684Z,9.80
2018-10-21T11:41:05.686Z,9.30
2018-10-21T11:43:34.583Z,10.93
2018-10-21T11:46:03.407Z,9.33
2018-10-21T11:48:32.279Z,10.90
2018-10-21T11:51:01.742Z,11.20
2018-10-21T11:53:30.680Z,12.07
2018-10-21T11:55:59.501Z,11.57
2018-10-21T11:58:28.372Z,10.70
2018-10-21T12:00:57.309Z,10.63
2018-10-21T12:03:26.137Z,9.53
2018-10-21T12:05:54.992Z,8.73
2018-10-21T12:08:23.889Z,9.33
2018-10-21T12:10:52.723Z,9.07
2018-10-21T12:13:21.596Z,8.80
2018-10-21T12:15:50.859Z,8.27
2018-10-21T12:18:20.332Z,7.43
2018-10-21T12:20:49.236Z,7.53
2018-10-21T12:23:18.191Z,7.33
2018-10-21T12:25:47.787Z,7.03
2018-10-21T12:28:17.060Z,5.87
2018-10-21T12:30:46.114Z,6.77
2018-10-21T12:33:14.979Z,5.83
2018-10-21T12:35:43.804Z,6.40
2018-10-21T12:38:12.629Z,6.30
2018-10-21T12:40:41.452Z,6.07
2018-10-21T12:43:10.692Z,4.90
2018-10-21T12:45:39.688Z,4.58
2018-10-21T12:48:08.738Z,4.45
2018-10-21T12:50:37.736Z,4.43
2018-10-21T12:53:07.044Z,4.55
2018-10-21T12:55:40.205Z,4.40
2018-10-21T12:58:09.064Z,5.58
2018-10-21T13:00:38.053Z,6.30
2018-10-21T13:03:07.284Z,5.72
2018-10-21T13:05:36.181Z,5.40
2018-10-21T13:08:05.076Z,6.17
2018-10-21T13:10:33.918Z,5.77
2018-10-21T13:13:03.243Z,6.67
2018-10-21T13:15:32.112Z,6.50
2018-10-21T13:18:00.998Z,5.50
2018-10-21T13:20:30.293Z,5.37
2018-10-21T13:22:59.296Z,6.47
2018-10-21T13:25:28.569Z,5.43
2018-10-21T13:27:57.640Z,5.83
2018-10-21T13:30:26.537Z,5.70
2018-10-21T13:32:55.550Z,6.40
2018-10-21T13:35:24.440Z,5.53
2018-10-21T13:37:53.272Z,5.83
2018-10-21T13:40:22.274Z,5.73
2018-10-21T13:42:51.085Z,5.27
2018-10-21T13:45:19.900Z,5.20
2018-10-21T13:47:48.736Z,4.47
2018-10-21T13:50:17.613Z,5.07
2018-10-21T13:52:46.509Z,4.90
2018-10-21T13:55:15.400Z,4.90
2018-10-21T13:57:44.259Z,5.53
2018-10-21T14:00:13.126Z,5.33
2018-10-21T14:02:42.022Z,5.13
2018-10-21T14:05:10.850Z,5.10
2018-10-21T14:07:39.839Z,5.40
2018-10-21T14:10:08.980Z,5.30
2018-10-21T14:12:37.864Z,5.80
2018-10-21T14:15:06.733Z,5.67
2018-10-21T14:17:35.719Z,6.00
2018-10-21T14:20:05.142Z,5.50
2018-10-21T14:22:34.046Z,6.30
2018-10-21T14:25:02.984Z,6.70
2018-10-21T14:27:31.964Z,6.35
2018-10-21T14:30:00.831Z,7.03
2018-10-21T14:32:29.696Z,6.57
2018-10-21T14:34:58.589Z,7.53
2018-10-21T14:37:27.401Z,6.93
2018-10-21T14:39:56.212Z,6.67
2018-10-21T14:42:25.037Z,7.07
2018-10-21T14:44:53.897Z,7.47
2018-10-21T14:47:22.824Z,7.00
2018-10-21T14:49:51.647Z,6.80
2018-10-21T14:52:20.501Z,6.67
2018-10-21T14:54:49.353Z,7.83
2018-10-21T14:57:19.028Z,7.10
2018-10-21T14:59:48.816Z,6.50
2018-10-21T15:02:17.870Z,7.53
2018-10-21T15:04:47.823Z,7.90
2018-10-21T15:07:17.033Z,7.60
2018-10-21T15:09:45.922Z,7.40
2018-10-21T15:12:14.842Z,7.30
2018-10-21T15:14:44.010Z,7.33
2018-10-21T15:17:13.284Z,7.43
2018-10-21T15:19:42.878Z,7.60
2018-10-21T15:22:12.618Z,7.77
2018-10-21T15:24:41.904Z,7.63
2018-10-21T15:27:11.243Z,7.93
2018-10-21T15:29:40.163Z,7.60
2018-10-21T15:32:09.076Z,7.50
2018-10-21T15:34:38.043Z,8.80
2018-10-21T15:37:07.001Z,8.40
2018-10-21T15:39:35.876Z,8.43
2018-10-21T15:42:05.064Z,9.73
2018-10-21T15:44:34.008Z,9.03
2018-10-21T15:47:02.914Z,9.53
2018-10-21T15:49:32.023Z,9.73
2018-10-21T15:52:00.980Z,9.63
2018-10-21T15:54:30.399Z,10.50
2018-10-21T15:56:59.578Z,10.40
2018-10-21T15:59:28.934Z,10.50
2018-10-21T16:01:58.085Z,10.90
2018-10-21T16:04:27.446Z,10.18
2018-10-21T16:06:56.427Z,10.97
2018-10-21T16:09:25.286Z,11.57
2018-10-21T16:11:54.137Z,11.10
2018-10-21T16:14:23.091Z,11.75
2018-10-21T16:16:51.852Z,11.30
2018-10-21T16:19:20.785Z,12.73
2018-10-21T16:21:49.772Z,13.87
2018-10-21T16:24:19.104Z,15.03
2018-10-21T16:26:48.005Z,15.37
2018-10-21T16:29:16.855Z,16.83
2018-10-21T16:31:45.717Z,16.13
2018-10-21T16:34:14.947Z,15.30
2018-10-21T16:36:43.784Z,14.27
2018-10-21T16:39:12.685Z,15.83
2018-10-21T16:41:41.560Z,14.47
2018-10-21T16:44:10.451Z,15.77
2018-10-21T16:46:39.254Z,16.93
2018-10-21T16:49:08.224Z,16.90
2018-10-21T16:51:37.138Z,15.93
2018-10-21T16:54:05.963Z,16.30
2018-10-21T16:56:34.772Z,16.23
2018-10-21T16:59:03.671Z,16.57
2018-10-21T17:01:32.556Z,17.10
2018-10-21T17:04:01.417Z,16.97
2018-10-21T17:06:30.325Z,17.37
2018-10-21T17:08:59.261Z,17.03
2018-10-21T17:11:28.060Z,16.85
2018-10-21T17:13:56.864Z,16.20
2018-10-21T17:16:25.709Z,16.37
2018-10-21T17:18:54.585Z,16.30
2018-10-21T17:21:23.392Z,16.10
2018-10-21T17:23:52.284Z,15.00
2018-10-21T17:26:22.066Z,15.32
2018-10-21T17:28:51.025Z,15.50
2018-10-21T17:31:20.678Z,15.20
2018-10-21T17:33:49.654Z,15.30
2018-10-21T17:36:18.479Z,16.50
2018-10-21T17:38:47.297Z,15.63
2018-10-21T17:41:16.496Z,17.87
2018-10-21T17:43:46.076Z,17.83
2018-10-21T17:46:15.043Z,18.30
2018-10-21T17:48:43.877Z,18.20
2018-10-21T17:51:12.726Z,19.67
2018-10-21T17:53:41.565Z,19.83
2018-10-21T17:56:11.028Z,21.27
2018-10-21T17:58:39.932Z,21.60
2018-10-21T18:01:08.806Z,20.83
2018-10-21T18:03:37.692Z,22.07
2018-10-21T18:06:06.611Z,23.63
2018-10-21T18:08:35.487Z,22.97
2018-10-21T18:11:04.380Z,23.43
2018-10-21T18:13:33.264Z,24.75
2018-10-21T18:16:02.470Z,24.00
2018-10-21T18:18:31.485Z,23.77
2018-10-21T18:21:00.401Z,26.70
2018-10-21T18:23:29.290Z,25.32
2018-10-21T18:25:58.133Z,26.53
2018-10-21T18:28:27.024Z,25.00
2018-10-21T18:30:55.878Z,25.90
2018-10-21T18:33:24.769Z,25.50
2018-10-21T18:35:53.755Z,28.50
2018-10-21T18:38:22.561Z,28.67
2018-10-21T18:40:51.649Z,26.67
2018-10-21T18:43:20.862Z,29.03
2018-10-21T18:45:49.776Z,28.43
2018-10-21T18:48:18.636Z,27.17
2018-10-21T18:50:47.626Z,28.37
2018-10-21T18:53:16.432Z,29.70
2018-10-21T18:55:45.304Z,30.03
2018-10-21T18:58:14.232Z,31.20
2018-10-21T19:00:43.055Z,29.77
2018-10-21T19:03:11.949Z,30.60
2018-10-21T19:05:40.828Z,28.10
2018-10-21T19:08:09.692Z,27.40
2018-10-21T19:10:38.582Z,26.70
2018-10-21T19:13:07.570Z,27.07
2018-10-21T19:15:36.444Z,27.60
2018-10-21T19:18:05.388Z,24.90
2018-10-21T19:20:34.264Z,22.77
2018-10-21T19:23:03.217Z,21.57
2018-10-21T19:25:32.027Z,21.70
2018-10-21T19:28:01.129Z,20.77
2018-10-21T19:30:29.987Z,19.57
2018-10-21T19:32:58.962Z,18.92
2018-10-21T19:35:27.848Z,17.52
2018-10-21T19:37:56.688Z,16.20
2018-10-21T19:40:25.623Z,14.85
2018-10-21T19:42:54.628Z,16.03
2018-10-21T19:45:23.486Z,14.73
2018-10-21T19:47:52.380Z,14.67
2018-10-21T19:50:21.477Z,13.33
2018-10-21T19:52:50.797Z,12.57
2018-10-21T19:55:20.958Z,13.10
2018-10-21T19:57:49.911Z,12.47
2018-10-21T20:00:18.838Z,10.97
2018-10-21T20:02:47.660Z,11.40
2018-10-21T20:05:16.563Z,10.47
2018-10-21T20:07:45.420Z,11.37
2018-10-21T20:10:15.273Z,10.97
2018-10-21T20:12:44.145Z,9.97
2018-10-21T20:15:13.593Z,9.77
2018-10-21T20:17:42.469Z,10.00
2018-10-21T20:20:11.844Z,9.47
2018-10-21T20:22:40.737Z,9.33
2018-10-21T20:25:10.378Z,8.73
2018-10-21T20:27:39.240Z,7.93
2018-10-21T20:30:08.554Z,7.80
2018-10-21T20:32:37.427Z,7.47
2018-10-21T20:35:07.013Z,7.40
2018-10-21T20:37:35.887Z,7.40
2018-10-21T20:40:05.243Z,7.17
2018-10-21T20:42:34.299Z,6.63
2018-10-21T20:45:03.625Z,6.77
2018-10-21T20:47:32.556Z,7.30
2018-10-21T20:50:01.421Z,7.80
2018-10-21T20:52:30.274Z,7.03
2018-10-21T20:54:59.137Z,7.27
2018-10-21T20:57:28.538Z,8.08
2018-10-21T20:59:57.413Z,7.97
2018-10-21T21:02:26.324Z,8.57
2018-10-21T21:04:55.214Z,8.57
2018-10-21T21:07:24.061Z,8.50
2018-10-21T21:09:52.920Z,8.87
2018-10-21T21:12:21.820Z,8.70
2018-10-21T21:14:50.729Z,9.47
2018-10-21T21:17:19.804Z,9.23
2018-10-21T21:19:48.606Z,8.77
2018-10-21T21:22:17.566Z,8.07
2018-10-21T21:24:46.492Z,8.63
2018-10-21T21:27:15.459Z,7.73
2018-10-21T21:29:44.341Z,8.73
2018-10-21T21:32:14.810Z,9.33
2018-10-21T21:34:43.941Z,8.90
2018-10-21T21:37:12.768Z,9.33
2018-10-21T21:39:41.714Z,8.53
2018-10-21T21:42:10.640Z,9.00
2018-10-21T21:44:39.481Z,8.23
2018-10-21T21:47:08.318Z,9.20
2018-10-21T21:49:37.121Z,9.57
2018-10-21T21:52:06.041Z,9.20
2018-10-21T21:54:34.836Z,9.50
2018-10-21T21:57:03.724Z,9.28
2018-10-21T21:59:32.580Z,9.93
2018-10-21T22:02:01.398Z,9.47
2018-10-21T22:04:30.228Z,9.97
2018-10-21T22:06:59.085Z,10.00
2018-10-21T22:09:27.929Z,10.73
2018-10-21T22:11:56.769Z,9.57
2018-10-21T22:14:25.617Z,9.40
2018-10-21T22:16:54.477Z,10.30
2018-10-21T22:19:23.349Z,10.27
2018-10-21T22:21:52.233Z,9.23
2018-10-21T22:24:21.049Z,10.27
2018-10-21T22:26:49.866Z,9.83
2018-10-21T22:29:19.436Z,9.60
2018-10-21T22:31:48.307Z,8.83
2018-10-21T22:34:17.963Z,8.67
2018-10-21T22:36:46.736Z,9.50
2018-10-21T22:39:15.624Z,9.80
2018-10-21T22:41:44.549Z,10.70
2018-10-21T22:44:13.415Z,9.60
2018-10-21T22:46:42.560Z,9.47
2018-10-21T22:49:11.315Z,9.67
2018-10-21T22:51:40.244Z,8.77
2018-10-21T22:54:09.095Z,8.50
2018-10-21T22:56:37.891Z,8.90
2018-10-21T22:59:06.793Z,8.77
2018-10-21T23:01:35.619Z,8.83
2018-10-21T23:04:04.537Z,9.50
2018-10-21T23:06:33.357Z,9.70
2018-10-21T23:09:02.200Z,8.77
2018-10-21T23:11:31.029Z,8.53
2018-10-21T23:13:59.875Z,8.50
2018-10-21T23:16:28.740Z,9.30
2018-10-21T23:19:04.108Z,8.67
2018-10-21T23:21:32.928Z,9.73
2018-10-21T23:24:01.841Z,7.57
2018-10-21T23:26:30.696Z,8.65
2018-10-21T23:28:59.534Z,7.73
2018-10-21T23:31:28.349Z,8.03
2018-10-21T23:33:57.199Z,7.40
2018-10-21T23:36:26.034Z,7.53
2018-10-21T23:38:54.857Z,6.73
2018-10-21T23:41:23.729Z,6.78
2018-10-21T23:43:52.588Z,5.90
2018-10-21T23:46:21.413Z,5.60
2018-10-21T23:48:50.869Z,5.80
2018-10-21T23:51:19.777Z,4.57
2018-10-21T23:53:48.597Z,4.57
2018-10-21T23:56:18.164Z,4.33
2018-10-21T23:58:47.008Z,4.00
